createdAt,value
2023-12-11T00:00:43.410Z,73.47
2023-12-11T00:01:43.409Z,73.88
2023-12-11T00:02:44.899Z,73.47
2023-12-11T00:03:43.370Z,74.08
2023-12-11T00:04:43.293Z,73.98
2023-12-11T00:05:43.261Z,75.12
2023-12-11T00:06:43.333Z,75.49
2023-12-11T00:07:43.250Z,76.00
2023-12-11T00:08:43.249Z,76.10
2023-12-11T00:09:43.275Z,75.90
2023-12-11T00:10:43.226Z,76.31
2023-12-11T00:11:43.191Z,76.82
2023-12-11T00:12:43.229Z,77.34
2023-12-11T00:13:43.168Z,78.06
2023-12-11T00:14:43.213Z,79.39
2023-12-11T00:15:43.170Z,80.87
2023-12-11T00:16:43.150Z,81.90
2023-12-11T00:17:43.176Z,82.82
2023-12-11T00:18:43.242Z,83.13
2023-12-11T00:19:43.155Z,83.85
2023-12-11T00:20:43.139Z,83.85
2023-12-11T00:21:43.126Z,84.36
2023-12-11T00:22:43.137Z,84.98
2023-12-11T00:23:43.051Z,84.98
2023-12-11T00:24:43.211Z,85.49
2023-12-11T00:25:43.042Z,85.60
2023-12-11T00:26:43.065Z,85.80
2023-12-11T00:27:43.057Z,86.21
2023-12-11T00:28:43.009Z,86.00
2023-12-11T00:29:42.991Z,86.00
2023-12-11T00:30:43.057Z,86.62
2023-12-11T00:31:42.974Z,86.83
2023-12-11T00:32:43.036Z,87.34
2023-12-11T00:33:43.029Z,87.85
2023-12-11T00:34:43.143Z,87.96
2023-12-11T00:35:42.922Z,88.17
2023-12-11T00:36:42.949Z,88.17
2023-12-11T00:37:42.911Z,88.06
2023-12-11T00:38:42.918Z,88.06
2023-12-11T00:39:42.915Z,88.06
2023-12-11T00:40:42.928Z,88.06
2023-12-11T00:41:42.855Z,88.27
2023-12-11T00:42:42.914Z,88.47
2023-12-11T00:43:45.582Z,88.68
2023-12-11T00:44:42.889Z,88.89
2023-12-11T00:45:42.850Z,89.09
2023-12-11T00:46:42.832Z,89.29
2023-12-11T00:47:42.925Z,89.50
2023-12-11T00:48:42.986Z,89.50
2023-12-11T00:49:42.841Z,89.60
2023-12-11T00:50:42.808Z,89.81
2023-12-11T00:51:42.779Z,89.85
2023-12-11T00:52:42.756Z,90.06
2023-12-11T00:53:42.741Z,90.26
2023-12-11T00:54:42.820Z,90.57
2023-12-11T00:55:42.706Z,90.78
2023-12-11T00:56:42.725Z,90.88
2023-12-11T00:57:42.730Z,90.88
2023-12-11T00:58:42.718Z,90.88
2023-12-11T00:59:42.686Z,90.98
2023-12-11T01:00:42.796Z,90.98
2023-12-11T01:01:42.680Z,91.08
2023-12-11T01:18:27.980Z,91.91
2023-12-11T01:19:06.213Z,92.11
2023-12-11T01:20:06.138Z,92.21
2023-12-11T01:21:06.056Z,92.42
2023-12-11T01:22:06.127Z,92.42
2023-12-11T01:23:06.050Z,92.52
2023-12-11T01:24:06.060Z,92.52
2023-12-11T01:25:06.048Z,92.73
2023-12-11T01:26:06.024Z,93.24
2023-12-11T01:27:05.992Z,93.65
2023-12-11T01:28:06.023Z,94.07
2023-12-11T01:29:06.006Z,94.48
2023-12-11T01:30:05.989Z,94.89
2023-12-11T01:31:06.008Z,95.20
2023-12-11T01:32:07.310Z,95.61
2023-12-11T01:33:06.035Z,95.81
2023-12-11T01:34:06.062Z,96.02
2023-12-11T01:35:05.922Z,96.37
2023-12-11T01:36:05.887Z,96.68
2023-12-11T01:37:05.955Z,97.09
2023-12-11T01:38:05.879Z,97.30
2023-12-11T01:39:05.872Z,97.50
2023-12-11T01:40:05.957Z,97.61
2023-12-11T01:41:05.853Z,97.61
2023-12-11T01:42:05.833Z,97.81
2023-12-11T01:43:14.180Z,97.81
2023-12-11T01:44:05.841Z,98.02
2023-12-11T01:45:05.809Z,98.02
2023-12-11T01:46:05.985Z,98.02
2023-12-11T01:47:05.809Z,98.12
2023-12-11T01:48:05.876Z,98.22
2023-12-11T01:49:05.931Z,98.33
2023-12-11T01:50:05.747Z,98.33
2023-12-11T01:51:05.754Z,98.37
2023-12-11T01:52:05.811Z,98.37
2023-12-11T01:53:05.763Z,98.47
2023-12-11T01:54:05.703Z,98.47
2023-12-11T01:55:05.755Z,98.37
2023-12-11T01:56:05.720Z,98.37
2023-12-11T01:57:05.710Z,98.37
2023-12-11T01:58:05.712Z,98.47
2023-12-11T01:59:05.670Z,98.47
2023-12-11T02:00:05.678Z,98.47
2023-12-11T02:01:05.729Z,98.47
2023-12-11T02:02:05.611Z,98.47
2023-12-11T02:03:05.618Z,98.47
2023-12-11T02:04:05.689Z,98.47
2023-12-11T02:05:05.741Z,98.58
2023-12-11T02:06:05.580Z,98.58
2023-12-11T02:07:05.638Z,98.58
2023-12-11T02:08:05.555Z,98.68
2023-12-11T02:09:05.585Z,98.58
2023-12-11T02:10:05.612Z,98.58
2023-12-11T02:11:05.540Z,98.58
2023-12-11T02:12:05.512Z,98.58
2023-12-11T02:13:05.579Z,98.58
2023-12-11T02:14:05.503Z,98.58
2023-12-11T02:15:05.504Z,98.68
2023-12-11T02:16:05.527Z,98.68
2023-12-11T02:17:05.508Z,98.79
2023-12-11T02:18:05.526Z,98.68
2023-12-11T02:19:05.574Z,98.68
2023-12-11T02:20:05.464Z,98.68
2023-12-11T02:21:05.440Z,98.58
2023-12-11T02:22:05.474Z,98.47
2023-12-11T02:23:05.424Z,98.58
2023-12-11T02:24:05.430Z,98.58
2023-12-11T02:25:05.441Z,98.58
2023-12-11T02:26:05.369Z,98.58
2023-12-11T02:27:05.368Z,98.58
2023-12-11T02:28:05.401Z,98.58
2023-12-11T02:29:05.384Z,98.58
2023-12-11T02:30:05.339Z,98.58
2023-12-11T02:31:05.410Z,98.47
2023-12-11T02:32:05.315Z,98.37
2023-12-11T02:33:05.353Z,98.27
2023-12-11T02:34:05.428Z,98.12
2023-12-11T02:35:05.284Z,98.16
2023-12-11T02:36:05.259Z,98.12
2023-12-11T02:37:05.327Z,97.91
2023-12-11T02:38:05.238Z,97.91
2023-12-11T02:39:05.365Z,97.91
2023-12-11T02:40:05.256Z,98.12
2023-12-11T02:41:05.242Z,98.16
2023-12-11T02:42:05.196Z,98.16
2023-12-11T02:43:05.257Z,98.27
2023-12-11T02:44:05.193Z,98.22
2023-12-11T02:45:05.212Z,98.22
2023-12-11T02:46:05.255Z,98.33
2023-12-11T02:47:05.178Z,98.12
2023-12-11T02:48:05.151Z,98.02
2023-12-11T02:49:05.239Z,98.12
2023-12-11T02:50:05.118Z,98.02
2023-12-11T02:51:05.147Z,97.91
2023-12-11T02:52:05.146Z,97.81
2023-12-11T02:53:05.099Z,97.71
2023-12-11T02:54:05.073Z,97.91
2023-12-11T02:55:05.131Z,97.91
2023-12-11T02:56:05.047Z,97.91
2023-12-11T02:57:05.091Z,98.02
2023-12-11T02:58:05.084Z,98.02
2023-12-11T02:59:05.035Z,97.81
2023-12-11T03:00:05.013Z,98.02
2023-12-11T03:01:05.085Z,97.91
2023-12-11T03:02:04.983Z,98.02
2023-12-11T03:03:05.080Z,98.02
2023-12-11T03:04:05.121Z,97.91
2023-12-11T03:05:04.992Z,97.71
2023-12-11T03:06:05.020Z,97.91
2023-12-11T03:07:05.009Z,97.81
2023-12-11T03:08:04.926Z,97.71
2023-12-11T03:09:04.953Z,97.71
2023-12-11T03:10:04.998Z,97.61
2023-12-11T03:11:04.908Z,97.81
2023-12-11T03:12:04.887Z,97.81
2023-12-11T03:13:05.028Z,97.61
2023-12-11T03:14:04.876Z,97.55
2023-12-11T03:15:04.882Z,97.44
2023-12-11T03:16:04.846Z,97.55
2023-12-11T03:17:04.865Z,97.90
2023-12-11T03:18:05.034Z,98.11
2023-12-11T03:19:04.946Z,98.62
2023-12-11T03:20:04.821Z,98.93
2023-12-11T03:21:04.830Z,99.08
2023-12-11T03:22:04.821Z,99.18
2023-12-11T03:23:04.811Z,99.29
2023-12-11T03:24:04.779Z,99.49
2023-12-11T03:25:04.817Z,99.49
2023-12-11T03:26:04.741Z,99.54
2023-12-11T03:27:04.762Z,99.99
2023-12-11T03:28:04.794Z,99.99
2023-12-11T03:29:04.729Z,99.99
2023-12-11T03:30:04.712Z,99.99
2023-12-11T03:31:04.743Z,99.99
2023-12-11T03:32:04.668Z,99.99
2023-12-11T03:33:04.720Z,99.99
2023-12-11T03:34:04.750Z,99.99
2023-12-11T03:35:04.689Z,99.99
2023-12-11T03:36:04.643Z,99.99
2023-12-11T03:37:04.639Z,99.99
2023-12-11T03:38:04.614Z,99.99
2023-12-11T03:39:04.621Z,99.99
2023-12-11T03:40:04.678Z,99.99
2023-12-11T03:41:04.628Z,99.99
2023-12-11T03:42:04.568Z,99.99
2023-12-11T03:43:04.639Z,99.99
2023-12-11T03:44:04.550Z,99.99
2023-12-11T03:45:04.568Z,99.99
2023-12-11T03:46:04.598Z,99.99
2023-12-11T03:47:04.527Z,99.99
2023-12-11T03:48:04.675Z,99.99
2023-12-11T03:49:04.641Z,99.99
2023-12-11T03:50:04.480Z,99.99
2023-12-11T03:51:04.508Z,99.99
2023-12-11T03:52:04.522Z,99.99
2023-12-11T03:53:04.501Z,99.99
2023-12-11T03:54:04.450Z,99.99
2023-12-11T03:55:04.501Z,99.99
2023-12-11T03:56:04.434Z,99.99
2023-12-11T03:57:04.421Z,99.99
2023-12-11T03:58:04.442Z,99.99
2023-12-11T03:59:04.416Z,99.99
2023-12-11T04:00:04.376Z,99.99
2023-12-11T04:01:04.528Z,99.99
2023-12-11T04:02:04.613Z,99.99
2023-12-11T04:03:04.388Z,99.99
2023-12-11T04:04:04.539Z,99.99
2023-12-11T04:05:04.343Z,99.99
2023-12-11T04:06:04.379Z,99.99
2023-12-11T04:07:04.366Z,99.99
2023-12-11T04:08:04.289Z,99.99
2023-12-11T04:09:04.306Z,99.99
2023-12-11T04:10:04.441Z,99.99
2023-12-11T04:11:04.282Z,99.99
2023-12-11T04:12:04.240Z,99.99
2023-12-11T04:13:04.261Z,99.99
2023-12-11T04:14:04.219Z,99.99
2023-12-11T04:15:04.236Z,99.99
2023-12-11T04:16:04.226Z,99.99
2023-12-11T04:17:04.224Z,99.99
2023-12-11T04:18:04.256Z,99.99
2023-12-11T04:19:04.316Z,99.99
2023-12-11T04:20:04.357Z,99.99
2023-12-11T04:21:04.168Z,99.99
2023-12-11T04:22:04.174Z,99.99
2023-12-11T04:23:04.165Z,99.99
2023-12-11T04:24:04.111Z,99.99
2023-12-11T04:25:04.188Z,99.99
2023-12-11T04:26:04.104Z,99.99
2023-12-11T04:27:04.126Z,99.99
2023-12-11T04:28:04.079Z,99.99
2023-12-11T04:29:04.093Z,99.99
2023-12-11T04:30:04.045Z,99.99
2023-12-11T04:31:04.135Z,99.99
2023-12-11T04:32:04.027Z,99.99
2023-12-11T04:33:04.119Z,99.99
2023-12-11T04:34:04.149Z,99.99
2023-12-11T04:35:04.020Z,99.99
2023-12-11T04:36:03.980Z,99.99
2023-12-11T04:37:04.072Z,99.99
2023-12-11T04:38:03.965Z,99.99
2023-12-11T04:39:03.986Z,99.99
2023-12-11T04:40:03.957Z,99.99
2023-12-11T04:41:04.067Z,99.99
2023-12-11T04:42:03.948Z,99.99
2023-12-11T04:43:04.045Z,99.99
2023-12-11T04:44:03.911Z,99.99
2023-12-11T04:45:03.925Z,99.99
2023-12-11T04:46:03.935Z,99.99
2023-12-11T04:47:03.900Z,99.99
2023-12-11T04:48:04.182Z,99.99
2023-12-11T04:49:03.960Z,99.99
2023-12-11T04:50:03.900Z,99.99
2023-12-11T04:51:03.851Z,99.99
2023-12-11T04:52:03.843Z,99.99
2023-12-11T04:53:03.860Z,99.99
2023-12-11T04:54:03.787Z,99.99
2023-12-11T04:55:03.887Z,99.99
2023-12-11T04:56:03.825Z,99.99
2023-12-11T04:57:03.799Z,99.99
2023-12-11T04:58:03.781Z,99.99
2023-12-11T04:59:03.764Z,99.99
2023-12-11T05:00:03.731Z,99.99
2023-12-11T05:01:04.112Z,99.99
2023-12-11T05:02:03.731Z,99.99
2023-12-11T05:03:03.754Z,99.99
2023-12-11T05:04:03.779Z,99.97
2023-12-11T05:05:03.776Z,99.87
2023-12-11T05:06:03.670Z,99.77
2023-12-11T05:07:03.730Z,99.66
2023-12-11T05:08:03.642Z,99.56
2023-12-11T05:09:03.661Z,99.56
2023-12-11T05:10:03.647Z,99.46
2023-12-11T05:11:03.648Z,99.35
2023-12-11T05:12:03.627Z,99.35
2023-12-11T05:13:03.681Z,99.35
2023-12-11T05:14:03.573Z,99.35
2023-12-11T05:15:03.731Z,99.35
2023-12-11T05:16:03.571Z,99.35
2023-12-11T05:17:03.584Z,99.35
2023-12-11T05:18:03.549Z,99.51
2023-12-11T05:19:03.620Z,99.71
2023-12-11T05:20:03.623Z,99.91
2023-12-11T05:21:03.515Z,99.99
2023-12-11T05:22:03.531Z,99.99
2023-12-11T05:23:03.513Z,99.99
2023-12-11T05:24:03.471Z,99.99
2023-12-11T05:25:03.533Z,99.99
2023-12-11T05:26:03.470Z,99.99
2023-12-11T05:27:03.454Z,99.99
2023-12-11T05:28:03.499Z,99.99
2023-12-11T05:29:03.452Z,99.99
2023-12-11T05:30:03.410Z,99.99
2023-12-11T05:31:03.454Z,99.99
2023-12-11T05:32:03.396Z,99.99
2023-12-11T05:33:03.485Z,99.99
2023-12-11T05:34:03.422Z,99.99
2023-12-11T05:35:03.390Z,99.99
2023-12-11T05:36:03.346Z,99.99
2023-12-11T05:37:03.394Z,99.99
2023-12-11T05:38:03.326Z,99.99
2023-12-11T05:39:03.357Z,99.99
2023-12-11T05:40:21.273Z,99.99
2023-12-11T05:41:03.348Z,99.99
2023-12-11T05:42:03.302Z,99.99
2023-12-11T05:43:03.356Z,99.99
2023-12-11T05:44:03.263Z,99.99
2023-12-11T05:45:03.281Z,99.99
2023-12-11T05:46:03.291Z,99.99
2023-12-11T05:47:03.240Z,99.99
2023-12-11T05:48:03.276Z,99.99
2023-12-11T05:49:03.289Z,99.99
2023-12-11T05:50:03.411Z,99.99
2023-12-11T05:51:03.184Z,99.99
2023-12-11T05:52:03.270Z,99.99
2023-12-11T05:53:03.166Z,99.99
2023-12-11T05:54:03.197Z,99.99
2023-12-11T05:55:03.203Z,99.99
2023-12-11T05:56:03.162Z,99.99
2023-12-11T05:57:03.130Z,99.99
2023-12-11T05:58:03.211Z,99.99
2023-12-11T05:59:03.105Z,99.97
2023-12-11T06:00:03.138Z,99.97
2023-12-11T06:01:03.134Z,99.97
2023-12-11T06:02:03.101Z,99.97
2023-12-11T06:03:03.083Z,99.77
2023-12-11T06:04:03.128Z,99.56
2023-12-11T06:05:03.117Z,99.66
2023-12-11T06:06:03.061Z,99.56
2023-12-11T06:07:03.033Z,99.46
2023-12-11T06:08:03.025Z,99.46
2023-12-11T06:09:03.006Z,99.46
2023-12-11T06:10:03.082Z,99.46
2023-12-11T06:11:02.976Z,99.46
2023-12-11T06:12:02.997Z,99.46
2023-12-11T06:13:02.997Z,99.46
2023-12-11T06:14:02.982Z,99.56
2023-12-11T06:15:02.966Z,99.66
2023-12-11T06:16:03.012Z,99.35
2023-12-11T06:17:02.929Z,98.79
2023-12-11T06:18:03.003Z,98.59
2023-12-11T06:19:03.103Z,98.28
2023-12-11T06:20:02.913Z,98.07
2023-12-11T06:21:03.577Z,98.07
2023-12-11T06:22:02.939Z,97.97
2023-12-11T06:23:02.866Z,97.97
2023-12-11T06:24:02.909Z,97.97
2023-12-11T06:25:02.919Z,97.97
2023-12-11T06:26:02.868Z,97.97
2023-12-11T06:27:02.805Z,98.07
2023-12-11T06:28:02.850Z,98.18
2023-12-11T06:29:02.815Z,98.18
2023-12-11T06:30:02.795Z,98.07
2023-12-11T06:31:02.849Z,98.18
2023-12-11T06:32:02.771Z,98.18
2023-12-11T06:33:02.729Z,98.18
2023-12-11T06:34:02.867Z,98.33
2023-12-11T06:35:02.869Z,98.33
2023-12-11T06:36:02.697Z,98.33
2023-12-11T06:37:02.701Z,98.53
2023-12-11T06:38:02.661Z,98.53
2023-12-11T06:39:02.726Z,98.63
2023-12-11T06:40:02.748Z,98.74
2023-12-11T06:41:02.662Z,98.74
2023-12-11T06:42:02.641Z,98.63
2023-12-11T06:43:02.670Z,98.63
2023-12-11T06:44:02.662Z,98.84
2023-12-11T06:45:02.610Z,98.84
2023-12-11T06:46:02.736Z,98.84
2023-12-11T06:47:02.593Z,98.84
2023-12-11T06:48:02.689Z,98.84
2023-12-11T06:49:02.657Z,98.84
2023-12-11T06:50:02.700Z,98.94
2023-12-11T06:51:02.496Z,98.94
2023-12-11T06:52:02.577Z,98.94
2023-12-11T06:53:02.478Z,99.05
2023-12-11T06:54:02.529Z,99.46
2023-12-11T06:55:02.560Z,99.77
2023-12-11T06:56:02.483Z,99.87
2023-12-11T06:57:02.433Z,99.99
2023-12-11T06:58:02.466Z,99.99
2023-12-11T06:59:02.469Z,99.99
2023-12-11T07:00:02.500Z,99.99
2023-12-11T07:01:02.575Z,99.99
2023-12-11T07:02:02.568Z,99.99
2023-12-11T07:03:02.373Z,99.99
2023-12-11T07:04:02.586Z,99.99
2023-12-11T07:05:02.439Z,99.99
2023-12-11T07:06:02.430Z,99.99
2023-12-11T07:07:02.342Z,99.99
2023-12-11T07:08:02.341Z,99.99
2023-12-11T07:09:02.312Z,99.99
2023-12-11T07:10:02.378Z,99.99
2023-12-11T07:11:02.302Z,99.99
2023-12-11T07:12:02.292Z,99.99
2023-12-11T07:13:02.318Z,99.99
2023-12-11T07:14:02.411Z,99.99
2023-12-11T07:15:02.240Z,99.99
2023-12-11T07:16:02.296Z,99.99
2023-12-11T07:17:02.245Z,99.99
2023-12-11T07:18:02.358Z,99.99
2023-12-11T07:19:02.408Z,99.99
2023-12-11T07:20:02.347Z,99.99
2023-12-11T07:21:02.189Z,99.99
2023-12-11T07:22:02.232Z,99.99
2023-12-11T07:23:02.169Z,99.99
2023-12-11T07:24:02.167Z,99.99
2023-12-11T07:25:02.259Z,99.99
2023-12-11T07:26:02.136Z,99.99
2023-12-11T07:27:02.134Z,99.99
2023-12-11T07:28:02.148Z,99.99
2023-12-11T07:29:02.125Z,99.99
2023-12-11T07:30:02.134Z,99.99
2023-12-11T07:31:02.094Z,99.99
2023-12-11T07:32:02.079Z,99.99
2023-12-11T07:33:02.193Z,99.99
2023-12-11T07:34:02.224Z,99.99
2023-12-11T07:35:02.262Z,99.99
2023-12-11T07:36:02.041Z,99.99
2023-12-11T07:37:02.058Z,99.99
2023-12-11T07:38:02.041Z,99.99
2023-12-11T07:39:02.003Z,99.99
2023-12-11T07:40:02.040Z,99.99
2023-12-11T07:41:04.428Z,99.99
2023-12-11T07:42:01.988Z,99.99
2023-12-11T07:43:02.033Z,99.99
2023-12-11T07:44:01.963Z,99.99
2023-12-11T07:45:01.931Z,99.99
2023-12-11T07:46:01.981Z,99.99
2023-12-11T07:47:01.912Z,99.99
2023-12-11T07:48:02.015Z,99.99
2023-12-11T07:49:01.993Z,99.99
2023-12-11T07:50:01.910Z,99.99
2023-12-11T07:51:01.874Z,99.99
2023-12-11T07:52:01.931Z,99.99
2023-12-11T07:53:01.855Z,99.99
2023-12-11T07:54:01.866Z,99.99
2023-12-11T07:55:01.966Z,99.99
2023-12-11T07:56:01.843Z,99.99
2023-12-11T07:57:01.829Z,99.99
2023-12-11T07:58:01.868Z,99.99
2023-12-11T07:59:01.776Z,99.99
2023-12-11T08:00:01.804Z,99.99
2023-12-11T08:01:02.011Z,99.99
2023-12-11T08:02:01.852Z,99.99
2023-12-11T08:03:01.752Z,99.99
2023-12-11T08:04:01.920Z,99.99
2023-12-11T08:05:01.811Z,99.99
2023-12-11T08:06:01.780Z,99.99
2023-12-11T08:07:01.742Z,99.99
2023-12-11T08:08:01.697Z,99.99
2023-12-11T08:09:01.675Z,99.99
2023-12-11T08:10:01.814Z,99.99
2023-12-11T08:11:01.665Z,99.99
2023-12-11T08:12:01.694Z,99.99
2023-12-11T08:13:01.718Z,99.99
2023-12-11T08:14:01.649Z,99.99
2023-12-11T08:15:01.699Z,99.99
2023-12-11T08:16:01.622Z,99.99
2023-12-11T08:17:01.607Z,99.99
2023-12-11T08:18:01.657Z,99.99
2023-12-11T08:19:01.623Z,99.99
2023-12-11T08:20:01.712Z,99.99
2023-12-11T08:21:01.543Z,99.99
2023-12-11T08:22:02.005Z,99.99
2023-12-11T08:23:01.537Z,99.99
2023-12-11T08:24:01.537Z,99.99
2023-12-11T08:25:01.552Z,99.99
2023-12-11T08:26:01.552Z,99.99
2023-12-11T08:27:01.555Z,99.99
2023-12-11T08:28:01.538Z,99.99
2023-12-11T08:29:01.470Z,99.99
2023-12-11T08:30:01.511Z,99.99
2023-12-11T08:31:01.501Z,99.99
2023-12-11T08:32:01.451Z,99.99
2023-12-11T08:33:01.439Z,99.99
2023-12-11T08:34:01.592Z,99.99
2023-12-11T08:35:01.462Z,99.99
2023-12-11T08:36:01.420Z,99.99
2023-12-11T08:37:01.428Z,99.99
2023-12-11T08:38:01.408Z,99.99
2023-12-11T08:39:01.355Z,99.99
2023-12-11T08:40:01.470Z,99.99
2023-12-11T08:41:01.351Z,99.99
2023-12-11T08:42:01.373Z,99.99
2023-12-11T08:43:01.350Z,99.84
2023-12-11T08:44:01.334Z,99.89
2023-12-11T08:45:01.313Z,99.89
2023-12-11T08:46:01.340Z,99.84
2023-12-11T08:47:01.273Z,99.84
2023-12-11T08:48:01.333Z,99.84
2023-12-11T08:49:01.378Z,99.99
2023-12-11T08:50:01.492Z,99.99
2023-12-11T08:51:01.248Z,99.99
2023-12-11T08:52:01.397Z,99.99
2023-12-11T08:53:01.205Z,99.99
2023-12-11T08:54:01.237Z,99.99
2023-12-11T08:55:01.312Z,99.99
2023-12-11T08:56:01.190Z,99.99
2023-12-11T08:57:01.167Z,99.99
2023-12-11T08:58:01.223Z,99.99
2023-12-11T08:59:01.155Z,99.99
2023-12-11T09:00:01.265Z,99.99
2023-12-11T09:01:01.193Z,99.99
2023-12-11T09:02:01.182Z,99.99
2023-12-11T09:03:01.113Z,99.99
2023-12-11T09:04:01.204Z,99.99
2023-12-11T09:05:01.174Z,99.99
2023-12-11T09:06:01.174Z,99.99
2023-12-11T09:07:01.195Z,99.99
2023-12-11T09:08:01.070Z,99.99
2023-12-11T09:09:01.038Z,99.99
2023-12-11T09:10:01.093Z,99.99
2023-12-11T09:11:01.019Z,99.99
2023-12-11T09:12:01.031Z,99.99
2023-12-11T09:13:01.087Z,99.99
2023-12-11T09:14:01.022Z,99.65
2023-12-11T09:15:00.991Z,99.91
2023-12-11T09:16:01.012Z,99.99
2023-12-11T09:17:01.567Z,99.70
2023-12-11T09:18:00.995Z,99.29
2023-12-11T09:19:00.993Z,98.47
2023-12-11T09:20:01.000Z,98.16
2023-12-11T09:21:00.921Z,97.34
2023-12-11T09:22:00.962Z,97.40
2023-12-11T09:23:00.914Z,96.89
2023-12-11T09:24:00.930Z,96.07
2023-12-11T09:25:00.912Z,95.56
2023-12-11T09:26:00.894Z,94.70
2023-12-11T09:27:00.839Z,94.59
2023-12-11T09:28:00.881Z,94.04
2023-12-11T09:29:00.888Z,93.73
2023-12-11T09:30:00.856Z,93.32
2023-12-11T09:31:00.831Z,92.71
2023-12-11T09:32:00.809Z,92.15
2023-12-11T09:33:00.847Z,92.05
2023-12-11T09:34:00.987Z,91.48
2023-12-11T09:35:00.941Z,91.27
2023-12-11T09:36:00.799Z,91.33
2023-12-11T09:37:00.838Z,91.23
2023-12-11T09:38:00.754Z,91.03
2023-12-11T09:39:00.717Z,90.72
2023-12-11T09:40:00.783Z,90.31
2023-12-11T09:41:01.653Z,90.31
2023-12-11T09:42:00.695Z,90.72
2023-12-11T09:43:00.693Z,90.92
2023-12-11T09:44:00.689Z,90.00
2023-12-11T09:45:00.657Z,90.00
2023-12-11T09:46:00.700Z,90.21
2023-12-11T09:47:00.633Z,89.70
2023-12-11T09:48:08.676Z,89.39
2023-12-11T09:49:00.741Z,88.88
2023-12-11T09:50:00.864Z,89.09
2023-12-11T09:51:00.599Z,89.09
2023-12-11T09:52:00.638Z,88.02
2023-12-11T09:53:00.580Z,88.12
2023-12-11T09:54:00.583Z,88.12
2023-12-11T09:55:00.599Z,88.12
2023-12-11T09:56:00.554Z,88.02
2023-12-11T09:57:00.531Z,88.23
2023-12-11T09:58:00.557Z,87.98
2023-12-11T09:59:00.510Z,87.47
2023-12-11T10:00:00.548Z,87.57
2023-12-11T10:01:00.534Z,87.47
2023-12-11T10:02:00.589Z,87.20
2023-12-11T10:03:00.481Z,87.06
2023-12-11T10:04:00.478Z,87.06
2023-12-11T10:05:00.459Z,87.16
2023-12-11T10:06:00.476Z,87.37
2023-12-11T10:07:00.495Z,86.96
2023-12-11T10:08:00.490Z,86.96
2023-12-11T10:09:00.405Z,86.76
2023-12-11T10:10:00.444Z,87.06
2023-12-11T10:11:00.401Z,86.76
2023-12-11T10:12:00.453Z,87.06
2023-12-11T10:13:00.398Z,86.76
2023-12-11T10:14:00.340Z,86.76
2023-12-11T10:15:00.372Z,86.82
2023-12-11T10:16:00.413Z,86.71
2023-12-11T10:17:00.339Z,86.30
2023-12-11T10:18:00.434Z,85.08
2023-12-11T10:19:00.534Z,84.88
2023-12-11T10:20:00.405Z,85.08
2023-12-11T10:21:00.275Z,85.59
2023-12-11T10:22:00.379Z,85.38
2023-12-11T10:23:04.009Z,85.79
2023-12-11T10:24:00.263Z,85.38
2023-12-11T10:25:00.324Z,85.79
2023-12-11T10:26:00.210Z,85.59
2023-12-11T10:27:00.230Z,85.28
2023-12-11T10:28:00.250Z,85.28
2023-12-11T10:29:00.217Z,85.08
2023-12-11T10:30:00.195Z,85.49
2023-12-11T10:31:00.260Z,85.28
2023-12-11T10:32:00.192Z,85.38
2023-12-11T10:33:00.255Z,84.98
2023-12-11T10:34:00.304Z,84.67
2023-12-11T10:35:00.405Z,84.26
2023-12-11T10:36:00.122Z,83.95
2023-12-11T10:37:00.152Z,84.16
2023-12-11T10:38:00.079Z,83.65
2023-12-11T10:39:00.109Z,84.16
2023-12-11T10:40:00.129Z,84.26
2023-12-11T10:41:00.069Z,84.77
2023-12-11T10:42:00.041Z,84.16
2023-12-11T10:43:00.103Z,83.95
2023-12-11T10:44:08.950Z,83.44
2023-12-11T10:45:00.049Z,83.04
2023-12-11T10:46:00.024Z,83.34
2023-12-11T10:47:00.037Z,83.44
2023-12-11T10:48:00.019Z,83.14
2023-12-11T10:49:00.097Z,83.24
2023-12-11T10:49:59.967Z,83.44
2023-12-11T10:50:59.954Z,83.24
2023-12-11T10:52:00.012Z,83.14
2023-12-11T10:52:59.984Z,83.34
2023-12-11T10:54:00.253Z,83.14
2023-12-11T10:54:59.954Z,82.93
2023-12-11T10:55:59.993Z,83.34
2023-12-11T10:56:59.959Z,83.14
2023-12-11T10:57:59.911Z,82.63
2023-12-11T10:58:59.878Z,82.73
2023-12-11T10:59:59.842Z,82.63
2023-12-11T11:00:59.942Z,82.63
2023-12-11T11:01:59.954Z,83.04
2023-12-11T11:02:59.848Z,83.04
2023-12-11T11:03:59.824Z,83.24
2023-12-11T11:04:59.848Z,82.63
2023-12-11T11:05:59.908Z,82.22
2023-12-11T11:06:59.813Z,82.32
2023-12-11T11:07:59.759Z,81.81
2023-12-11T11:09:00.758Z,81.91
2023-12-11T11:09:59.772Z,82.32
2023-12-11T11:10:59.781Z,82.42
2023-12-11T11:11:59.717Z,83.04
2023-12-11T11:12:59.763Z,82.32
2023-12-11T11:13:59.703Z,81.81
2023-12-11T11:14:59.704Z,81.81
2023-12-11T11:15:59.720Z,82.01
2023-12-11T11:16:59.701Z,82.01
2023-12-11T11:17:59.826Z,82.01
2023-12-11T11:18:59.737Z,83.04
2023-12-11T11:19:59.723Z,82.73
2023-12-11T11:20:59.650Z,83.48
2023-12-11T11:21:59.631Z,84.61
2023-12-11T11:22:59.727Z,84.00
2023-12-11T11:23:59.774Z,85.12
2023-12-11T11:24:59.626Z,85.22
2023-12-11T11:25:59.666Z,85.16
2023-12-11T11:26:59.572Z,86.18
2023-12-11T11:27:59.668Z,86.49
2023-12-11T11:28:59.678Z,87.00
2023-12-11T11:29:59.640Z,86.49
2023-12-11T11:30:59.548Z,86.38
2023-12-11T11:31:59.521Z,86.49
2023-12-11T11:32:59.546Z,86.79
2023-12-11T11:33:59.628Z,86.79
2023-12-11T11:34:59.560Z,86.08
2023-12-11T11:35:59.458Z,85.88
2023-12-11T11:36:59.483Z,85.57
2023-12-11T11:37:59.439Z,85.97
2023-12-11T11:38:59.458Z,85.57
2023-12-11T11:39:59.586Z,84.65
2023-12-11T11:41:00.165Z,84.85
2023-12-11T11:41:59.404Z,84.75
2023-12-11T11:42:59.451Z,83.93
2023-12-11T11:43:59.389Z,83.42
2023-12-11T11:44:59.380Z,82.91
2023-12-11T11:45:59.399Z,82.91
2023-12-11T11:46:59.360Z,83.11
2023-12-11T11:47:59.351Z,82.36
2023-12-11T11:48:59.366Z,81.54
2023-12-11T11:49:59.344Z,81.13
2023-12-11T11:50:59.330Z,81.44
2023-12-11T11:51:59.332Z,80.42
2023-12-11T11:52:59.314Z,80.62
2023-12-11T11:53:59.269Z,81.03
2023-12-11T11:54:59.348Z,80.52
2023-12-11T11:55:59.297Z,80.32
2023-12-11T11:56:59.253Z,80.83
2023-12-11T11:57:59.237Z,80.83
2023-12-11T11:58:59.227Z,80.93
2023-12-11T11:59:59.204Z,80.32
2023-12-11T12:00:59.331Z,80.42
2023-12-11T12:01:59.382Z,80.42
2023-12-11T12:02:59.214Z,80.83
2023-12-11T12:03:59.303Z,80.11
2023-12-11T12:04:59.227Z,79.80
2023-12-11T12:05:59.314Z,80.11
2023-12-11T12:06:59.192Z,80.01
2023-12-11T12:07:59.123Z,79.60
2023-12-11T12:08:59.134Z,79.91
2023-12-11T12:09:59.113Z,80.11
2023-12-11T12:10:59.118Z,80.11
2023-12-11T12:11:59.156Z,80.52
2023-12-11T12:12:59.219Z,80.52
2023-12-11T12:13:59.093Z,80.42
2023-12-11T12:14:59.079Z,80.52
2023-12-11T12:15:59.056Z,80.42
2023-12-11T12:16:59.056Z,80.01
2023-12-11T12:17:59.128Z,75.89
2023-12-11T12:18:59.096Z,76.09
2023-12-11T12:20:00.750Z,77.22
2023-12-11T12:20:58.994Z,78.44
2023-12-11T12:21:58.993Z,78.34
2023-12-11T12:22:59.006Z,75.37
2023-12-11T12:23:58.960Z,76.19
2023-12-11T12:24:58.973Z,73.23
2023-12-11T12:25:58.938Z,73.71
2023-12-11T12:26:58.941Z,74.22
2023-12-11T12:27:58.974Z,74.73
2023-12-11T12:28:58.971Z,74.63
2023-12-11T12:29:58.893Z,74.11
2023-12-11T12:30:58.993Z,73.19
2023-12-11T12:31:58.855Z,71.97
2023-12-11T12:32:58.929Z,71.43
2023-12-11T12:33:58.918Z,71.94
2023-12-11T12:34:59.180Z,71.63
2023-12-11T12:35:58.870Z,72.04
2023-12-11T12:36:58.860Z,72.14
2023-12-11T12:37:58.797Z,72.45
2023-12-11T12:38:58.822Z,72.45
2023-12-11T12:39:58.843Z,72.55
2023-12-11T12:40:58.793Z,72.65
2023-12-11T12:41:58.871Z,72.99
2023-12-11T12:42:58.782Z,73.30
2023-12-11T12:43:58.752Z,72.48
2023-12-11T12:44:58.782Z,72.69
2023-12-11T12:45:58.740Z,72.99
2023-12-11T12:46:58.716Z,71.67
2023-12-11T12:47:58.774Z,71.87
2023-12-11T12:48:58.801Z,72.07
2023-12-11T12:49:58.762Z,71.77
2023-12-11T12:50:58.686Z,72.07
2023-12-11T12:51:58.705Z,72.69
2023-12-11T12:52:58.652Z,71.87
2023-12-11T12:53:58.639Z,71.67
2023-12-11T12:54:58.702Z,71.87
2023-12-11T12:55:58.627Z,71.46
2023-12-11T12:56:58.626Z,72.07
2023-12-11T12:57:58.647Z,71.36
2023-12-11T12:58:58.655Z,71.05
2023-12-11T12:59:58.560Z,70.34
2023-12-11T13:00:58.627Z,70.75
2023-12-11T13:01:58.664Z,71.05
2023-12-11T13:02:58.566Z,70.85
2023-12-11T13:03:58.582Z,71.05
2023-12-11T13:04:58.615Z,70.34
2023-12-11T13:05:58.575Z,70.34
2023-12-11T13:06:58.549Z,71.15
2023-12-11T13:07:58.470Z,71.46